sensor_id;sensor_type;location;lat;lon;timestamp;temperature;humidity
15676;DHT22;7938;47.666;9.434;2022-12-11T05:00:36;-3.20;99.90
15676;DHT22;7938;47.666;9.434;2022-12-11T05:03:05;-3.10;99.90
15676;DHT22;7938;47.666;9.434;2022-12-11T05:05:32;-3.20;99.90
15676;DHT22;7938;47.666;9.434;2022-12-11T05:07:59;-3.20;99.90
15676;DHT22;7938;47.666;9.434;2022-12-11T05:10:26;-3.40;99.90
15676;DHT22;7938;47.666;9.434;2022-12-11T05:12:53;-3.30;99.90
15676;DHT22;7938;47.666;9.434;2022-12-11T05:15:19;-3.30;99.90
15676;DHT22;7938;47.666;9.434;2022-12-11T05:17:48;-3.10;99.90
15676;DHT22;7938;47.666;9.434;2022-12-11T05:20:14;-3.40;99.90
15676;DHT22;7938;47.666;9.434;2022-12-11T05:22:42;-3.50;99.90
15676;DHT22;7938;47.666;9.434;2022-12-11T05:25:09;-3.60;99.90
15676;DHT22;7938;47.666;9.434;2022-12-11T05:27:35;-3.60;99.90
15676;DHT22;7938;47.666;9.434;2022-12-11T05:30:03;-3.80;99.90
15676;DHT22;7938;47.666;9.434;2022-12-11T05:32:30;-3.70;99.90
15676;DHT22;7938;47.666;9.434;2022-12-11T05:34:58;-3.70;99.90
15676;DHT22;7938;47.666;9.434;2022-12-11T05:37:25;-3.70;99.90
15676;DHT22;7938;47.666;9.434;2022-12-11T05:39:52;-3.90;99.90
15676;DHT22;7938;47.666;9.434;2022-12-11T05:42:19;-3.90;99.90
15676;DHT22;7938;47.666;9.434;2022-12-11T05:44:46;-4.10;99.90
15676;DHT22;7938;47.666;9.434;2022-12-11T05:47:14;-4.00;99.90
15676;DHT22;7938;47.666;9.434;2022-12-11T05:49:41;-4.10;99.90
15676;DHT22;7938;47.666;9.434;2022-12-11T05:52:09;-4.30;99.90
15676;DHT22;7938;47.666;9.434;2022-12-11T05:54:36;-4.30;99.90
15676;DHT22;7938;47.666;9.434;2022-12-11T05:57:03;-4.30;99.90
15676;DHT22;7938;47.666;9.434;2022-12-11T05:59:30;-4.40;99.90
15676;DHT22;7938;47.666;9.434;2022-12-11T06:01:57;-4.40;99.90
15676;DHT22;7938;47.666;9.434;2022-12-11T06:04:24;-4.40;99.90
15676;DHT22;7938;47.666;9.434;2022-12-11T06:06:53;-4.50;99.90
15676;DHT22;7938;47.666;9.434;2022-12-11T06:09:21;-4.40;99.90
15676;DHT22;7938;47.666;9.434;2022-12-11T06:11:48;-4.50;99.90
15676;DHT22;7938;47.666;9.434;2022-12-11T06:14:15;-4.60;99.90
15676;DHT22;7938;47.666;9.434;2022-12-11T06:16:41;-4.50;99.90
15676;DHT22;7938;47.666;9.434;2022-12-11T06:19:12;-4.60;99.90
15676;DHT22;7938;47.666;9.434;2022-12-11T06:21:39;-4.70;99.90
15676;DHT22;7938;47.666;9.434;2022-12-11T06:24:08;-4.60;99.90
15676;DHT22;7938;47.666;9.434;2022-12-11T06:26:37;-4.70;99.90
15676;DHT22;7938;47.666;9.434;2022-12-11T06:29:04;-4.80;99.90
15676;DHT22;7938;47.666;9.434;2022-12-11T06:31:31;-4.70;99.90
15676;DHT22;7938;47.666;9.434;2022-12-11T06:33:57;-4.70;99.90
15676;DHT22;7938;47.666;9.434;2022-12-11T06:36:24;-4.70;99.90
15676;DHT22;7938;47.666;9.434;2022-12-11T06:38:51;-4.80;99.90
15676;DHT22;7938;47.666;9.434;2022-12-11T06:41:18;-4.80;99.90
15676;DHT22;7938;47.666;9.434;2022-12-11T06:43:46;-4.80;99.90
15676;DHT22;7938;47.666;9.434;2022-12-11T06:46:15;-5.00;99.90
15676;DHT22;7938;47.666;9.434;2022-12-11T06:48:43;-4.70;99.90
15676;DHT22;7938;47.666;9.434;2022-12-11T06:51:12;-4.80;99.90
15676;DHT22;7938;47.666;9.434;2022-12-11T06:53:39;-4.80;99.90
15676;DHT22;7938;47.666;9.434;2022-12-11T06:56:08;-4.90;99.90
15676;DHT22;7938;47.666;9.434;2022-12-11T06:58:36;-5.00;99.90
15676;DHT22;7938;47.666;9.434;2022-12-11T07:01:13;-5.10;99.90
15676;DHT22;7938;47.666;9.434;2022-12-11T07:03:40;-5.10;99.90
15676;DHT22;7938;47.666;9.434;2022-12-11T07:06:07;-5.00;99.90
15676;DHT22;7938;47.666;9.434;2022-12-11T07:08:34;-5.10;99.90
15676;DHT22;7938;47.666;9.434;2022-12-11T07:11:02;-5.10;99.90
15676;DHT22;7938;47.666;9.434;2022-12-11T07:13:29;-4.70;99.90
15676;DHT22;7938;47.666;9.434;2022-12-11T07:15:57;-4.60;99.90
15676;DHT22;7938;47.666;9.434;2022-12-11T07:18:25;-4.70;99.90
15676;DHT22;7938;47.666;9.434;2022-12-11T07:20:52;-4.90;99.90
15676;DHT22;7938;47.666;9.434;2022-12-11T07:23:19;-5.10;99.90
15676;DHT22;7938;47.666;9.434;2022-12-11T07:25:46;-4.90;99.90
15676;DHT22;7938;47.666;9.434;2022-12-11T07:28:12;-5.00;99.90
15676;DHT22;7938;47.666;9.434;2022-12-11T07:30:39;-5.00;99.90
15676;DHT22;7938;47.666;9.434;2022-12-11T07:33:06;-5.00;99.90
15676;DHT22;7938;47.666;9.434;2022-12-11T07:35:35;-5.10;99.90
15676;DHT22;7938;47.666;9.434;2022-12-11T07:38:02;-4.90;99.90
15676;DHT22;7938;47.666;9.434;2022-12-11T07:40:28;-5.10;99.90
15676;DHT22;7938;47.666;9.434;2022-12-11T07:42:56;-5.10;99.90
15676;DHT22;7938;47.666;9.434;2022-12-11T07:45:23;-5.10;99.90
15676;DHT22;7938;47.666;9.434;2022-12-11T07:47:50;-5.00;99.90
15676;DHT22;7938;47.666;9.434;2022-12-11T07:50:18;-5.00;99.90
15676;DHT22;7938;47.666;9.434;2022-12-11T07:52:46;-6.20;99.90
15676;DHT22;7938;47.666;9.434;2022-12-11T07:55:13;-5.20;99.90
15676;DHT22;7938;47.666;9.434;2022-12-11T07:57:40;-5.10;99.90
15676;DHT22;7938;47.666;9.434;2022-12-11T08:00:08;-5.20;99.90
15676;DHT22;7938;47.666;9.434;2022-12-11T08:02:36;-4.90;99.90
15676;DHT22;7938;47.666;9.434;2022-12-11T08:05:03;-5.00;99.90
15676;DHT22;7938;47.666;9.434;2022-12-11T08:07:33;-5.00;99.90
15676;DHT22;7938;47.666;9.434;2022-12-11T08:10:01;-5.10;99.90
15676;DHT22;7938;47.666;9.434;2022-12-11T08:12:28;-4.80;99.90
15676;DHT22;7938;47.666;9.434;2022-12-11T08:14:55;-4.90;99.90
15676;DHT22;7938;47.666;9.434;2022-12-11T08:17:22;-4.60;99.90
15676;DHT22;7938;47.666;9.434;2022-12-11T08:19:49;-4.60;99.90
15676;DHT22;7938;47.666;9.434;2022-12-11T08:22:15;-4.60;99.90
15676;DHT22;7938;47.666;9.434;2022-12-11T08:24:42;-4.60;99.90
15676;DHT22;7938;47.666;9.434;2022-12-11T08:27:11;-4.50;99.90
15676;DHT22;7938;47.666;9.434;2022-12-11T08:29:38;-4.60;99.90
15676;DHT22;7938;47.666;9.434;2022-12-11T08:32:04;-4.40;99.90
15676;DHT22;7938;47.666;9.434;2022-12-11T08:34:32;-4.40;99.90
15676;DHT22;7938;47.666;9.434;2022-12-11T08:36:59;-4.40;99.90
15676;DHT22;7938;47.666;9.434;2022-12-11T08:39:25;-4.30;99.90
15676;DHT22;7938;47.666;9.434;2022-12-11T08:41:52;-4.20;99.90
15676;DHT22;7938;47.666;9.434;2022-12-11T08:44:21;-4.10;99.90
15676;DHT22;7938;47.666;9.434;2022-12-11T08:46:49;-3.50;99.90
15676;DHT22;7938;47.666;9.434;2022-12-11T08:49:16;-4.00;99.90
15676;DHT22;7938;47.666;9.434;2022-12-11T08:51:43;-4.00;99.90
15676;DHT22;7938;47.666;9.434;2022-12-11T08:54:10;-3.60;99.90
15676;DHT22;7938;47.666;9.434;2022-12-11T08:56:37;-3.50;99.90
15676;DHT22;7938;47.666;9.434;2022-12-11T08:59:04;-3.90;99.90
15676;DHT22;7938;47.666;9.434;2022-12-11T09:01:32;-3.60;99.90
15676;DHT22;7938;47.666;9.434;2022-12-11T09:03:59;-2.90;99.90
15676;DHT22;7938;47.666;9.434;2022-12-11T09:06:28;-3.40;99.90
15676;DHT22;7938;47.666;9.434;2022-12-11T09:08:58;-3.40;99.90
15676;DHT22;7938;47.666;9.434;2022-12-11T09:11:26;-3.20;99.90
15676;DHT22;7938;47.666;9.434;2022-12-11T09:13:54;-3.20;99.90
15676;DHT22;7938;47.666;9.434;2022-12-11T09:16:23;-3.20;99.90
15676;DHT22;7938;47.666;9.434;2022-12-11T09:18:52;-3.00;99.90
15676;DHT22;7938;47.666;9.434;2022-12-11T09:21:22;-3.00;99.90
15676;DHT22;7938;47.666;9.434;2022-12-11T09:23:52;-2.80;99.90
15676;DHT22;7938;47.666;9.434;2022-12-11T09:26:20;-2.30;99.90
15676;DHT22;7938;47.666;9.434;2022-12-11T09:28:47;-1.60;99.90
15676;DHT22;7938;47.666;9.434;2022-12-11T09:31:17;-1.00;99.90
15676;DHT22;7938;47.666;9.434;2022-12-11T09:33:44;-0.70;99.90
15676;DHT22;7938;47.666;9.434;2022-12-11T09:36:13;-0.40;99.90
15676;DHT22;7938;47.666;9.434;2022-12-11T09:38:40;-0.50;99.90
15676;DHT22;7938;47.666;9.434;2022-12-11T09:41:35;-0.20;99.90
15676;DHT22;7938;47.666;9.434;2022-12-11T09:44:15;-0.40;99.90
15676;DHT22;7938;47.666;9.434;2022-12-11T09:46:44;-0.50;99.90
15676;DHT22;7938;47.666;9.434;2022-12-11T09:49:20;-0.50;99.90
15676;DHT22;7938;47.666;9.434;2022-12-11T09:51:57;-0.70;99.90
15676;DHT22;7938;47.666;9.434;2022-12-11T09:54:26;-0.70;99.90
15676;DHT22;7938;47.666;9.434;2022-12-11T09:57:01;-0.60;99.90
15676;DHT22;7938;47.666;9.434;2022-12-11T09:59:35;-0.70;99.90
15676;DHT22;7938;47.666;9.434;2022-12-11T10:02:18;-0.60;99.90
15676;DHT22;7938;47.666;9.434;2022-12-11T10:04:54;-0.50;99.90
15676;DHT22;7938;47.666;9.434;2022-12-11T10:07:32;-0.30;99.90
15676;DHT22;7938;47.666;9.434;2022-12-11T10:10:04;-0.20;99.90
15676;DHT22;7938;47.666;9.434;2022-12-11T10:12:40;-0.30;99.90
15676;DHT22;7938;47.666;9.434;2022-12-11T10:15:16;-0.10;99.90
15676;DHT22;7938;47.666;9.434;2022-12-11T10:17:45;0.10;99.90
15676;DHT22;7938;47.666;9.434;2022-12-11T10:20:21;0.50;99.90
15676;DHT22;7938;47.666;9.434;2022-12-11T10:22:51;1.40;99.90
15676;DHT22;7938;47.666;9.434;2022-12-11T10:25:20;0.40;99.90
15676;DHT22;7938;47.666;9.434;2022-12-11T10:27:49;0.10;99.90
15676;DHT22;7938;47.666;9.434;2022-12-11T10:30:18;0.00;99.90
15676;DHT22;7938;47.666;9.434;2022-12-11T10:32:50;-0.10;99.90
15676;DHT22;7938;47.666;9.434;2022-12-11T10:35:25;-0.20;99.90
15676;DHT22;7938;47.666;9.434;2022-12-11T10:37:57;-0.40;99.90
15676;DHT22;7938;47.666;9.434;2022-12-11T10:40:28;-0.50;99.90
15676;DHT22;7938;47.666;9.434;2022-12-11T10:42:56;-0.40;99.90
15676;DHT22;7938;47.666;9.434;2022-12-11T10:45:23;0.00;99.90
15676;DHT22;7938;47.666;9.434;2022-12-11T10:48:01;-0.10;99.90
15676;DHT22;7938;47.666;9.434;2022-12-11T10:50:28;0.30;99.90
15676;DHT22;7938;47.666;9.434;2022-12-11T10:52:56;0.40;99.90
15676;DHT22;7938;47.666;9.434;2022-12-11T10:55:26;0.50;99.90
15676;DHT22;7938;47.666;9.434;2022-12-11T10:57:55;0.60;99.90
15676;DHT22;7938;47.666;9.434;2022-12-11T11:00:33;0.40;99.90
15676;DHT22;7938;47.666;9.434;2022-12-11T11:03:02;0.60;99.90
15676;DHT22;7938;47.666;9.434;2022-12-11T11:05:31;0.30;99.90
15676;DHT22;7938;47.666;9.434;2022-12-11T11:08:12;0.40;99.90
15676;DHT22;7938;47.666;9.434;2022-12-11T11:10:49;0.50;99.90
15676;DHT22;7938;47.666;9.434;2022-12-11T11:13:16;0.90;99.90
15676;DHT22;7938;47.666;9.434;2022-12-11T11:15:44;1.20;99.90
15676;DHT22;7938;47.666;9.434;2022-12-11T11:18:17;1.30;99.90
15676;DHT22;7938;47.666;9.434;2022-12-11T11:20:47;1.30;99.90
15676;DHT22;7938;47.666;9.434;2022-12-11T11:23:18;1.20;99.90
15676;DHT22;7938;47.666;9.434;2022-12-11T11:25:50;0.90;99.90
15676;DHT22;7938;47.666;9.434;2022-12-11T11:28:20;0.70;99.90
15676;DHT22;7938;47.666;9.434;2022-12-11T11:30:59;0.60;99.90
15676;DHT22;7938;47.666;9.434;2022-12-11T11:33:28;0.40;99.90
15676;DHT22;7938;47.666;9.434;2022-12-11T11:35:57;0.40;99.90
15676;DHT22;7938;47.666;9.434;2022-12-11T11:38:29;0.40;99.90
15676;DHT22;7938;47.666;9.434;2022-12-11T11:41:05;0.20;99.90
15676;DHT22;7938;47.666;9.434;2022-12-11T11:43:42;0.20;99.90
15676;DHT22;7938;47.666;9.434;2022-12-11T11:46:13;0.30;99.90
15676;DHT22;7938;47.666;9.434;2022-12-11T11:48:48;0.50;99.90
15676;DHT22;7938;47.666;9.434;2022-12-11T11:51:22;0.40;99.90
15676;DHT22;7938;47.666;9.434;2022-12-11T11:53:54;0.30;99.90
15676;DHT22;7938;47.666;9.434;2022-12-11T11:56:25;0.40;99.90
15676;DHT22;7938;47.666;9.434;2022-12-11T11:59:05;0.50;99.90
15676;DHT22;7938;47.666;9.434;2022-12-11T12:01:36;0.40;99.90
15676;DHT22;7938;47.666;9.434;2022-12-11T12:04:06;0.40;99.90
15676;DHT22;7938;47.666;9.434;2022-12-11T12:06:43;0.30;99.90
15676;DHT22;7938;47.666;9.434;2022-12-11T12:09:24;0.40;99.90
15676;DHT22;7938;47.666;9.434;2022-12-11T12:12:05;0.20;99.90
15676;DHT22;7938;47.666;9.434;2022-12-11T12:14:40;0.70;99.90
15676;DHT22;7938;47.666;9.434;2022-12-11T12:17:18;0.10;99.90
15676;DHT22;7938;47.666;9.434;2022-12-11T12:19:53;0.40;99.90
15676;DHT22;7938;47.666;9.434;2022-12-11T12:25:26;0.40;99.90
15676;DHT22;7938;47.666;9.434;2022-12-11T12:28:00;0.30;99.90
15676;DHT22;7938;47.666;9.434;2022-12-11T12:30:34;0.50;99.90
15676;DHT22;7938;47.666;9.434;2022-12-11T12:33:13;0.10;99.90
15676;DHT22;7938;47.666;9.434;2022-12-11T12:35:49;0.10;99.90
15676;DHT22;7938;47.666;9.434;2022-12-11T12:38:22;0.00;99.90
15676;DHT22;7938;47.666;9.434;2022-12-11T12:41:01;0.00;99.90
15676;DHT22;7938;47.666;9.434;2022-12-11T12:43:43;0.20;99.90
15676;DHT22;7938;47.666;9.434;2022-12-11T12:46:19;0.10;99.90
15676;DHT22;7938;47.666;9.434;2022-12-11T12:48:49;0.20;99.90
15676;DHT22;7938;47.666;9.434;2022-12-11T12:51:18;0.20;99.90
15676;DHT22;7938;47.666;9.434;2022-12-11T12:53:48;0.10;99.90
15676;DHT22;7938;47.666;9.434;2022-12-11T12:56:20;0.10;99.90
15676;DHT22;7938;47.666;9.434;2022-12-11T12:58:48;0.20;99.90
15676;DHT22;7938;47.666;9.434;2022-12-11T13:01:16;0.30;99.90
15676;DHT22;7938;47.666;9.434;2022-12-11T13:03:54;0.20;99.90
15676;DHT22;7938;47.666;9.434;2022-12-11T13:06:29;0.20;99.90
15676;DHT22;7938;47.666;9.434;2022-12-11T13:08:57;0.30;99.90
15676;DHT22;7938;47.666;9.434;2022-12-11T13:11:37;0.30;99.90
15676;DHT22;7938;47.666;9.434;2022-12-11T13:14:06;0.10;99.90
15676;DHT22;7938;47.666;9.434;2022-12-11T13:16:35;0.10;99.90
15676;DHT22;7938;47.666;9.434;2022-12-11T13:19:15;0.20;99.90
15676;DHT22;7938;47.666;9.434;2022-12-11T13:21:54;0.10;99.90
15676;DHT22;7938;47.666;9.434;2022-12-11T13:24:25;-0.10;99.90
15676;DHT22;7938;47.666;9.434;2022-12-11T13:26:53;-0.20;99.90
15676;DHT22;7938;47.666;9.434;2022-12-11T13:29:31;0.00;99.90
15676;DHT22;7938;47.666;9.434;2022-12-11T13:32:01;-0.20;99.90
15676;DHT22;7938;47.666;9.434;2022-12-11T13:34:31;-0.10;99.90
15676;DHT22;7938;47.666;9.434;2022-12-11T13:36:59;-0.20;99.90
15676;DHT22;7938;47.666;9.434;2022-12-11T13:39:29;-0.20;99.90
15676;DHT22;7938;47.666;9.434;2022-12-11T13:42:02;-0.20;99.90
15676;DHT22;7938;47.666;9.434;2022-12-11T13:44:33;-0.20;99.90
15676;DHT22;7938;47.666;9.434;2022-12-11T13:47:03;-0.30;99.90
15676;DHT22;7938;47.666;9.434;2022-12-11T13:49:34;-0.50;99.90
15676;DHT22;7938;47.666;9.434;2022-12-11T13:52:02;-0.30;99.90
15676;DHT22;7938;47.666;9.434;2022-12-11T13:54:30;-0.40;99.90
15676;DHT22;7938;47.666;9.434;2022-12-11T13:57:02;-0.50;99.90
15676;DHT22;7938;47.666;9.434;2022-12-11T13:59:31;-0.40;99.90
15676;DHT22;7938;47.666;9.434;2022-12-11T14:02:04;-0.40;99.90
15676;DHT22;7938;47.666;9.434;2022-12-11T14:04:33;-0.40;99.90
15676;DHT22;7938;47.666;9.434;2022-12-11T14:07:01;-0.30;99.90
15676;DHT22;7938;47.666;9.434;2022-12-11T14:09:28;-0.10;99.90
15676;DHT22;7938;47.666;9.434;2022-12-11T14:11:55;-0.40;99.90
15676;DHT22;7938;47.666;9.434;2022-12-11T14:14:30;-0.60;99.90
15676;DHT22;7938;47.666;9.434;2022-12-11T14:17:00;-0.70;99.90
15676;DHT22;7938;47.666;9.434;2022-12-11T14:19:27;-0.90;99.90
15676;DHT22;7938;47.666;9.434;2022-12-11T14:21:57;-0.70;99.90
15676;DHT22;7938;47.666;9.434;2022-12-11T14:24:24;-0.70;99.90
15676;DHT22;7938;47.666;9.434;2022-12-11T14:26:52;-0.70;99.90
15676;DHT22;7938;47.666;9.434;2022-12-11T14:29:26;-0.70;99.90
15676;DHT22;7938;47.666;9.434;2022-12-11T14:31:55;-0.80;99.90
15676;DHT22;7938;47.666;9.434;2022-12-11T14:34:25;-1.00;99.90
15676;DHT22;7938;47.666;9.434;2022-12-11T14:36:53;-1.20;99.90
15676;DHT22;7938;47.666;9.434;2022-12-11T14:39:23;-1.20;99.90
15676;DHT22;7938;47.666;9.434;2022-12-11T14:41:54;-1.10;99.90
15676;DHT22;7938;47.666;9.434;2022-12-11T14:44:25;-1.20;99.90
15676;DHT22;7938;47.666;9.434;2022-12-11T14:46:56;-1.20;99.90
15676;DHT22;7938;47.666;9.434;2022-12-11T14:49:27;-1.30;99.90
15676;DHT22;7938;47.666;9.434;2022-12-11T14:51:57;-1.50;99.90
15676;DHT22;7938;47.666;9.434;2022-12-11T14:54:30;-1.40;99.90
15676;DHT22;7938;47.666;9.434;2022-12-11T14:56:58;-1.40;99.90
15676;DHT22;7938;47.666;9.434;2022-12-11T14:59:29;-1.70;99.90
15676;DHT22;7938;47.666;9.434;2022-12-11T15:01:57;-1.70;99.90
15676;DHT22;7938;47.666;9.434;2022-12-11T15:04:28;-1.70;99.90
15676;DHT22;7938;47.666;9.434;2022-12-11T15:06:56;-1.70;99.90
15676;DHT22;7938;47.666;9.434;2022-12-11T15:09:26;-1.90;99.90
15676;DHT22;7938;47.666;9.434;2022-12-11T15:11:55;-1.80;99.90
15676;DHT22;7938;47.666;9.434;2022-12-11T15:14:24;-2.00;99.90
15676;DHT22;7938;47.666;9.434;2022-12-11T15:16:55;-2.00;99.90
15676;DHT22;7938;47.666;9.434;2022-12-11T15:19:26;-2.10;99.90
15676;DHT22;7938;47.666;9.434;2022-12-11T15:21:59;-2.20;99.90
15676;DHT22;7938;47.666;9.434;2022-12-11T15:24:31;-2.20;99.90
15676;DHT22;7938;47.666;9.434;2022-12-11T15:27:00;-2.40;99.90
15676;DHT22;7938;47.666;9.434;2022-12-11T15:29:32;-2.10;99.90
15676;DHT22;7938;47.666;9.434;2022-12-11T15:32:11;-2.40;99.90
15676;DHT22;7938;47.666;9.434;2022-12-11T15:34:44;-2.40;99.90
15676;DHT22;7938;47.666;9.434;2022-12-11T15:37:17;-2.60;99.90
15676;DHT22;7938;47.666;9.434;2022-12-11T15:39:45;-2.80;99.90
15676;DHT22;7938;47.666;9.434;2022-12-11T15:42:14;-2.60;99.90
15676;DHT22;7938;47.666;9.434;2022-12-11T15:44:42;-2.80;99.90
15676;DHT22;7938;47.666;9.434;2022-12-11T15:47:14;-2.80;99.90
15676;DHT22;7938;47.666;9.434;2022-12-11T15:49:41;-2.90;99.90
15676;DHT22;7938;47.666;9.434;2022-12-11T15:52:08;-2.90;99.90
15676;DHT22;7938;47.666;9.434;2022-12-11T15:54:35;-2.90;99.90
15676;DHT22;7938;47.666;9.434;2022-12-11T15:57:05;-2.90;99.90
15676;DHT22;7938;47.666;9.434;2022-12-11T15:59:33;-3.00;99.90
15676;DHT22;7938;47.666;9.434;2022-12-11T16:02:00;-3.10;99.90
15676;DHT22;7938;47.666;9.434;2022-12-11T16:04:28;-3.10;99.90
15676;DHT22;7938;47.666;9.434;2022-12-11T16:06:55;-3.10;99.90
15676;DHT22;7938;47.666;9.434;2022-12-11T16:09:22;-3.10;99.90
15676;DHT22;7938;47.666;9.434;2022-12-11T16:11:49;-3.10;99.90
15676;DHT22;7938;47.666;9.434;2022-12-11T16:14:15;-3.20;99.90
15676;DHT22;7938;47.666;9.434;2022-12-11T16:16:42;-3.20;99.90
15676;DHT22;7938;47.666;9.434;2022-12-11T16:19:09;-3.20;99.90
15676;DHT22;7938;47.666;9.434;2022-12-11T16:21:37;-3.30;99.90
15676;DHT22;7938;47.666;9.434;2022-12-11T16:24:04;-3.30;99.90
15676;DHT22;7938;47.666;9.434;2022-12-11T16:26:31;-3.50;99.90
15676;DHT22;7938;47.666;9.434;2022-12-11T16:28:59;-3.50;99.90
15676;DHT22;7938;47.666;9.434;2022-12-11T16:31:26;-3.50;99.90
15676;DHT22;7938;47.666;9.434;2022-12-11T16:33:53;-3.50;99.90
15676;DHT22;7938;47.666;9.434;2022-12-11T16:36:21;-3.60;99.90
15676;DHT22;7938;47.666;9.434;2022-12-11T16:38:49;-3.50;99.90
15676;DHT22;7938;47.666;9.434;2022-12-11T16:41:16;-3.60;99.90
15676;DHT22;7938;47.666;9.434;2022-12-11T16:43:43;-3.60;99.90
15676;DHT22;7938;47.666;9.434;2022-12-11T16:46:10;-3.70;99.90
15676;DHT22;7938;47.666;9.434;2022-12-11T16:48:37;-3.70;99.90
15676;DHT22;7938;47.666;9.434;2022-12-11T16:51:04;-3.80;99.90
15676;DHT22;7938;47.666;9.434;2022-12-11T16:53:31;-3.90;99.90
15676;DHT22;7938;47.666;9.434;2022-12-11T16:55:59;-3.80;99.90
15676;DHT22;7938;47.666;9.434;2022-12-11T16:58:26;-3.80;99.90
15676;DHT22;7938;47.666;9.434;2022-12-11T17:00:53;-3.90;99.90
15676;DHT22;7938;47.666;9.434;2022-12-11T17:03:26;-3.70;99.90
15676;DHT22;7938;47.666;9.434;2022-12-11T17:05:54;-4.00;99.90
15676;DHT22;7938;47.666;9.434;2022-12-11T17:08:22;-4.00;99.90
15676;DHT22;7938;47.666;9.434;2022-12-11T17:10:50;-4.50;99.90
15676;DHT22;7938;47.666;9.434;2022-12-11T17:13:18;-4.00;99.90
15676;DHT22;7938;47.666;9.434;2022-12-11T17:15:45;-3.70;99.90
15676;DHT22;7938;47.666;9.434;2022-12-11T17:18:12;-4.00;99.90
15676;DHT22;7938;47.666;9.434;2022-12-11T17:20:40;-4.10;99.90
15676;DHT22;7938;47.666;9.434;2022-12-11T17:23:07;-3.80;99.90
15676;DHT22;7938;47.666;9.434;2022-12-11T17:25:38;-4.20;99.90
15676;DHT22;7938;47.666;9.434;2022-12-11T17:28:06;-4.20;99.90
15676;DHT22;7938;47.666;9.434;2022-12-11T17:30:38;-4.30;99.90
15676;DHT22;7938;47.666;9.434;2022-12-11T17:33:06;-4.30;99.90
15676;DHT22;7938;47.666;9.434;2022-12-11T17:35:33;-4.40;99.90
15676;DHT22;7938;47.666;9.434;2022-12-11T17:37:59;-4.00;99.90
15676;DHT22;7938;47.666;9.434;2022-12-11T17:40:26;-4.40;99.90
15676;DHT22;7938;47.666;9.434;2022-12-11T17:42:53;-4.60;99.90
15676;DHT22;7938;47.666;9.434;2022-12-11T17:45:20;-4.60;99.90
15676;DHT22;7938;47.666;9.434;2022-12-11T17:47:49;-4.70;99.90
15676;DHT22;7938;47.666;9.434;2022-12-11T17:50:15;-4.80;99.90
15676;DHT22;7938;47.666;9.434;2022-12-11T17:52:42;-4.80;99.90
15676;DHT22;7938;47.666;9.434;2022-12-11T17:55:09;-4.70;99.90
15676;DHT22;7938;47.666;9.434;2022-12-11T17:57:36;-4.80;99.90
15676;DHT22;7938;47.666;9.434;2022-12-11T18:00:04;-4.80;99.90
15676;DHT22;7938;47.666;9.434;2022-12-11T18:02:32;-4.70;99.90
15676;DHT22;7938;47.666;9.434;2022-12-11T18:05:01;-4.60;99.90
15676;DHT22;7938;47.666;9.434;2022-12-11T18:07:27;-5.00;99.90
15676;DHT22;7938;47.666;9.434;2022-12-11T18:09:54;-4.90;99.90
15676;DHT22;7938;47.666;9.434;2022-12-11T18:12:21;-4.90;99.90
15676;DHT22;7938;47.666;9.434;2022-12-11T18:14:48;-4.90;99.90
15676;DHT22;7938;47.666;9.434;2022-12-11T18:17:15;-5.00;99.90
15676;DHT22;7938;47.666;9.434;2022-12-11T18:19:42;-5.00;99.90
15676;DHT22;7938;47.666;9.434;2022-12-11T18:22:10;-4.90;99.90
15676;DHT22;7938;47.666;9.434;2022-12-11T18:24:37;-5.00;99.90
15676;DHT22;7938;47.666;9.434;2022-12-11T18:27:04;-4.90;99.90
15676;DHT22;7938;47.666;9.434;2022-12-11T18:29:34;-4.90;99.90
15676;DHT22;7938;47.666;9.434;2022-12-11T18:32:01;-5.00;99.90
15676;DHT22;7938;47.666;9.434;2022-12-11T18:34:28;-5.10;99.90
15676;DHT22;7938;47.666;9.434;2022-12-11T18:36:55;-5.00;99.90
15676;DHT22;7938;47.666;9.434;2022-12-11T18:39:23;-5.10;99.90
15676;DHT22;7938;47.666;9.434;2022-12-11T18:41:50;-5.10;99.90
15676;DHT22;7938;47.666;9.434;2022-12-11T18:44:17;-5.10;99.90
15676;DHT22;7938;47.666;9.434;2022-12-11T18:46:47;-5.00;99.90
15676;DHT22;7938;47.666;9.434;2022-12-11T18:49:14;-5.20;99.90
15676;DHT22;7938;47.666;9.434;2022-12-11T18:51:41;-5.20;99.90
15676;DHT22;7938;47.666;9.434;2022-12-11T18:54:08;-5.20;99.90
15676;DHT22;7938;47.666;9.434;2022-12-11T18:56:36;-5.20;99.90
15676;DHT22;7938;47.666;9.434;2022-12-11T18:59:03;-5.10;99.90
15676;DHT22;7938;47.666;9.434;2022-12-11T19:01:30;-5.30;99.90
15676;DHT22;7938;47.666;9.434;2022-12-11T19:03:59;-5.30;99.90
15676;DHT22;7938;47.666;9.434;2022-12-11T19:06:27;-5.30;99.90
15676;DHT22;7938;47.666;9.434;2022-12-11T19:08:55;-5.20;99.90
15676;DHT22;7938;47.666;9.434;2022-12-11T19:11:23;-5.30;99.90
15676;DHT22;7938;47.666;9.434;2022-12-11T19:13:53;-5.40;99.90
15676;DHT22;7938;47.666;9.434;2022-12-11T19:16:23;-5.00;99.90
15676;DHT22;7938;47.666;9.434;2022-12-11T19:18:51;-5.10;99.90
15676;DHT22;7938;47.666;9.434;2022-12-11T19:21:18;-5.10;99.90
15676;DHT22;7938;47.666;9.434;2022-12-11T19:23:46;-5.30;99.90
15676;DHT22;7938;47.666;9.434;2022-12-11T19:26:14;-5.30;99.90
15676;DHT22;7938;47.666;9.434;2022-12-11T19:28:42;-5.30;99.90
15676;DHT22;7938;47.666;9.434;2022-12-11T19:31:12;-5.50;99.90
15676;DHT22;7938;47.666;9.434;2022-12-11T19:33:40;-5.40;99.90
15676;DHT22;7938;47.666;9.434;2022-12-11T19:36:09;-5.40;99.90
15676;DHT22;7938;47.666;9.434;2022-12-11T19:38:36;-5.40;99.90
15676;DHT22;7938;47.666;9.434;2022-12-11T19:41:04;-5.50;99.90
15676;DHT22;7938;47.666;9.434;2022-12-11T19:43:32;-5.60;99.90
15676;DHT22;7938;47.666;9.434;2022-12-11T19:45:59;-5.60;99.90
15676;DHT22;7938;47.666;9.434;2022-12-11T19:48:28;-5.70;99.90
15676;DHT22;7938;47.666;9.434;2022-12-11T19:50:55;-5.70;99.90
15676;DHT22;7938;47.666;9.434;2022-12-11T19:53:22;-5.70;99.90
15676;DHT22;7938;47.666;9.434;2022-12-11T19:55:50;-5.70;99.90
15676;DHT22;7938;47.666;9.434;2022-12-11T19:58:17;-5.70;99.90
15676;DHT22;7938;47.666;9.434;2022-12-11T20:00:44;-5.60;99.90
15676;DHT22;7938;47.666;9.434;2022-12-11T20:03:11;-5.70;99.90
15676;DHT22;7938;47.666;9.434;2022-12-11T20:05:40;-5.60;99.90
15676;DHT22;7938;47.666;9.434;2022-12-11T20:08:07;-5.70;99.90
15676;DHT22;7938;47.666;9.434;2022-12-11T20:10:35;-5.60;99.90
15676;DHT22;7938;47.666;9.434;2022-12-11T20:13:03;-5.70;99.90
15676;DHT22;7938;47.666;9.434;2022-12-11T20:15:30;-5.40;99.90
15676;DHT22;7938;47.666;9.434;2022-12-11T20:17:59;-5.60;99.90
15676;DHT22;7938;47.666;9.434;2022-12-11T20:20:27;-5.70;99.90
15676;DHT22;7938;47.666;9.434;2022-12-11T20:22:57;-5.60;99.90
15676;DHT22;7938;47.666;9.434;2022-12-11T20:25:25;-5.60;99.90
15676;DHT22;7938;47.666;9.434;2022-12-11T20:27:53;-5.70;99.90
15676;DHT22;7938;47.666;9.434;2022-12-11T20:30:21;-5.50;99.90
15676;DHT22;7938;47.666;9.434;2022-12-11T20:32:49;-5.60;99.90
15676;DHT22;7938;47.666;9.434;2022-12-11T20:35:16;-5.60;99.90
15676;DHT22;7938;47.666;9.434;2022-12-11T20:37:43;-5.50;99.90
15676;DHT22;7938;47.666;9.434;2022-12-11T20:40:12;-5.50;99.90
15676;DHT22;7938;47.666;9.434;2022-12-11T20:42:39;-5.60;99.90
15676;DHT22;7938;47.666;9.434;2022-12-11T20:45:07;-5.60;99.90
15676;DHT22;7938;47.666;9.434;2022-12-11T20:47:34;-5.50;99.90
15676;DHT22;7938;47.666;9.434;2022-12-11T20:50:02;-5.30;99.90
15676;DHT22;7938;47.666;9.434;2022-12-11T20:52:28;-5.70;99.90
15676;DHT22;7938;47.666;9.434;2022-12-11T20:54:55;-5.70;99.90
15676;DHT22;7938;47.666;9.434;2022-12-11T20:57:24;-5.80;99.90
15676;DHT22;7938;47.666;9.434;2022-12-11T20:59:51;-5.60;99.90
15676;DHT22;7938;47.666;9.434;2022-12-11T21:02:17;-5.80;99.90
15676;DHT22;7938;47.666;9.434;2022-12-11T21:04:44;-5.80;99.90